sensor_id;sensor_type;location;lat;lon;timestamp;pressure;altitude;pressure_sealevel;temperature;humidity
57827;BME280;43656;57.746;11.780;2023-02-02T00:01:29;100306.84;;;2.28;83.35
57827;BME280;43656;57.746;11.780;2023-02-02T00:03:55;100300.19;;;2.24;83.51
57827;BME280;43656;57.746;11.780;2023-02-02T00:06:22;100306.09;;;2.18;84.38
57827;BME280;43656;57.746;11.780;2023-02-02T00:08:48;100303.22;;;2.03;84.44
57827;BME280;43656;57.746;11.780;2023-02-02T00:11:14;100313.19;;;2.35;83.52
57827;BME280;43656;57.746;11.780;2023-02-02T00:13:40;100312.59;;;2.16;84.65
57827;BME280;43656;57.746;11.780;2023-02-02T00:18:50;100346.09;;;2.43;83.53
57827;BME280;43656;57.746;11.780;2023-02-02T00:21:15;100340.91;;;2.41;83.13
57827;BME280;43656;57.746;11.780;2023-02-02T00:23:41;100336.06;;;2.63;81.87
57827;BME280;43656;57.746;11.780;2023-02-02T00:26:06;100340.34;;;2.55;81.19
57827;BME280;43656;57.746;11.780;2023-02-02T00:28:32;100351.31;;;2.61;81.41
57827;BME280;43656;57.746;11.780;2023-02-02T00:30:57;100354.59;;;2.54;82.07
57827;BME280;43656;57.746;11.780;2023-02-02T00:33:23;100347.91;;;2.42;82.11
57827;BME280;43656;57.746;11.780;2023-02-02T00:35:51;100347.31;;;2.56;80.45
57827;BME280;43656;57.746;11.780;2023-02-02T00:38:16;100361.16;;;2.68;80.08
57827;BME280;43656;57.746;11.780;2023-02-02T00:40:41;100374.16;;;2.79;80.68
57827;BME280;43656;57.746;11.780;2023-02-02T00:43:07;100381.47;;;2.51;80.83
57827;BME280;43656;57.746;11.780;2023-02-02T00:45:32;100384.53;;;2.65;80.58
57827;BME280;43656;57.746;11.780;2023-02-02T00:47:58;100384.78;;;2.45;81.37
57827;BME280;43656;57.746;11.780;2023-02-02T00:50:23;100387.19;;;2.65;80.39
57827;BME280;43656;57.746;11.780;2023-02-02T00:52:49;100391.38;;;2.67;79.73
57827;BME280;43656;57.746;11.780;2023-02-02T00:55:16;100402.09;;;2.57;81.27
57827;BME280;43656;57.746;11.780;2023-02-02T00:57:41;100411.47;;;2.44;81.63
57827;BME280;43656;57.746;11.780;2023-02-02T01:00:13;100420.44;;;2.43;81.82
57827;BME280;43656;57.746;11.780;2023-02-02T01:02:39;100422.72;;;2.38;82.05
57827;BME280;43656;57.746;11.780;2023-02-02T01:05:05;100428.44;;;2.51;81.85
57827;BME280;43656;57.746;11.780;2023-02-02T01:07:30;100435.75;;;2.49;81.69
57827;BME280;43656;57.746;11.780;2023-02-02T01:09:56;100432.94;;;2.50;80.94
57827;BME280;43656;57.746;11.780;2023-02-02T01:12:22;100434.56;;;2.43;81.09
57827;BME280;43656;57.746;11.780;2023-02-02T01:14:47;100434.06;;;2.48;81.24
57827;BME280;43656;57.746;11.780;2023-02-02T01:17:14;100431.47;;;2.56;80.42
57827;BME280;43656;57.746;11.780;2023-02-02T01:19:39;100446.72;;;2.80;79.79
57827;BME280;43656;57.746;11.780;2023-02-02T01:22:06;100457.13;;;2.65;79.37
57827;BME280;43656;57.746;11.780;2023-02-02T01:24:31;100459.69;;;2.57;80.07
57827;BME280;43656;57.746;11.780;2023-02-02T01:26:56;100472.47;;;2.79;78.82
57827;BME280;43656;57.746;11.780;2023-02-02T01:29:22;100468.16;;;2.52;78.68
57827;BME280;43656;57.746;11.780;2023-02-02T01:31:48;100478.56;;;2.46;79.08
57827;BME280;43656;57.746;11.780;2023-02-02T01:34:14;100457.25;;;2.38;79.18
57827;BME280;43656;57.746;11.780;2023-02-02T01:36:39;100490.28;;;2.61;78.58
57827;BME280;43656;57.746;11.780;2023-02-02T01:39:05;100497.06;;;2.55;79.43
57827;BME280;43656;57.746;11.780;2023-02-02T01:41:30;100495.44;;;2.63;79.07
57827;BME280;43656;57.746;11.780;2023-02-02T01:44:01;100502.78;;;2.69;79.17
57827;BME280;43656;57.746;11.780;2023-02-02T01:51:40;100492.69;;;2.10;81.91
57827;BME280;43656;57.746;11.780;2023-02-02T01:54:09;100530.91;;;2.00;81.86
57827;BME280;43656;57.746;11.780;2023-02-02T01:56:42;100525.53;;;2.09;81.99
57827;BME280;43656;57.746;11.780;2023-02-02T01:59:11;100531.22;;;2.32;81.00
57827;BME280;43656;57.746;11.780;2023-02-02T02:01:39;100532.66;;;2.27;81.03
57827;BME280;43656;57.746;11.780;2023-02-02T02:04:06;100556.22;;;2.48;80.27
57827;BME280;43656;57.746;11.780;2023-02-02T02:06:32;100562.94;;;2.52;80.06
57827;BME280;43656;57.746;11.780;2023-02-02T02:09:00;100548.06;;;2.23;81.13
57827;BME280;43656;57.746;11.780;2023-02-02T02:11:28;100575.00;;;2.46;80.53
57827;BME280;43656;57.746;11.780;2023-02-02T02:13:56;100577.03;;;2.34;80.95
57827;BME280;43656;57.746;11.780;2023-02-02T02:37:13;100608.78;;;1.53;83.29
57827;BME280;43656;57.746;11.780;2023-02-02T02:39:47;100636.44;;;1.78;83.64
57827;BME280;43656;57.746;11.780;2023-02-02T02:42:19;100640.28;;;1.66;83.23
57827;BME280;43656;57.746;11.780;2023-02-02T02:44:48;100627.41;;;1.71;82.88
57827;BME280;43656;57.746;11.780;2023-02-02T02:47:16;100649.44;;;1.72;83.29
57827;BME280;43656;57.746;11.780;2023-02-02T02:49:44;100650.75;;;1.58;83.70
57827;BME280;43656;57.746;11.780;2023-02-02T02:52:10;100651.22;;;1.53;83.84
57827;BME280;43656;57.746;11.780;2023-02-02T02:54:39;100654.91;;;1.33;84.26
57827;BME280;43656;57.746;11.780;2023-02-02T03:02:39;100662.69;;;1.34;84.07
57827;BME280;43656;57.746;11.780;2023-02-02T03:05:25;100670.06;;;1.40;84.74
57827;BME280;43656;57.746;11.780;2023-02-02T03:08:02;100676.94;;;1.24;84.74
57827;BME280;43656;57.746;11.780;2023-02-02T03:10:30;100668.97;;;1.33;84.60
57827;BME280;43656;57.746;11.780;2023-02-02T03:12:57;100678.31;;;1.37;85.11
57827;BME280;43656;57.746;11.780;2023-02-02T03:15:22;100680.25;;;1.45;84.60
57827;BME280;43656;57.746;11.780;2023-02-02T03:17:49;100695.06;;;1.28;85.29
57827;BME280;43656;57.746;11.780;2023-02-02T03:20:16;100689.59;;;1.49;84.57
57827;BME280;43656;57.746;11.780;2023-02-02T03:22:41;100695.47;;;1.43;84.42
57827;BME280;43656;57.746;11.780;2023-02-02T03:25:07;100699.81;;;1.81;82.45
57827;BME280;43656;57.746;11.780;2023-02-02T03:27:36;100706.19;;;1.41;83.97
57827;BME280;43656;57.746;11.780;2023-02-02T03:30:03;100721.28;;;1.31;84.24
57827;BME280;43656;57.746;11.780;2023-02-02T03:32:29;100722.41;;;1.29;84.37
57827;BME280;43656;57.746;11.780;2023-02-02T03:34:54;100729.13;;;1.13;84.97
57827;BME280;43656;57.746;11.780;2023-02-02T03:37:20;100740.28;;;1.17;85.09
57827;BME280;43656;57.746;11.780;2023-02-02T03:39:45;100740.84;;;1.30;85.07
57827;BME280;43656;57.746;11.780;2023-02-02T03:42:11;100754.06;;;1.50;83.48
57827;BME280;43656;57.746;11.780;2023-02-02T03:44:36;100747.50;;;1.44;83.69
57827;BME280;43656;57.746;11.780;2023-02-02T03:47:01;100755.19;;;1.47;82.96
57827;BME280;43656;57.746;11.780;2023-02-02T03:49:27;100755.19;;;1.37;83.50
57827;BME280;43656;57.746;11.780;2023-02-02T03:51:52;100754.22;;;1.19;84.24
57827;BME280;43656;57.746;11.780;2023-02-02T03:54:18;100763.03;;;1.29;84.01
57827;BME280;43656;57.746;11.780;2023-02-02T03:56:43;100765.97;;;1.26;84.11
57827;BME280;43656;57.746;11.780;2023-02-02T03:59:09;100764.81;;;1.29;83.59
57827;BME280;43656;57.746;11.780;2023-02-02T04:01:34;100775.41;;;1.38;83.60
57827;BME280;43656;57.746;11.780;2023-02-02T04:04:00;100781.16;;;1.34;83.50
57827;BME280;43656;57.746;11.780;2023-02-02T04:06:25;100788.00;;;1.27;83.14
57827;BME280;43656;57.746;11.780;2023-02-02T04:08:51;100789.81;;;1.36;83.19
57827;BME280;43656;57.746;11.780;2023-02-02T04:11:17;100775.41;;;1.19;83.00
57827;BME280;43656;57.746;11.780;2023-02-02T04:13:43;100800.13;;;1.29;83.10
57827;BME280;43656;57.746;11.780;2023-02-02T04:16:10;100802.19;;;1.35;82.53
57827;BME280;43656;57.746;11.780;2023-02-02T04:18:36;100806.94;;;1.41;81.69
57827;BME280;43656;57.746;11.780;2023-02-02T04:21:05;100813.53;;;1.47;81.68
57827;BME280;43656;57.746;11.780;2023-02-02T04:23:32;100809.22;;;1.46;81.39
57827;BME280;43656;57.746;11.780;2023-02-02T04:25:58;100790.91;;;1.33;81.10
57827;BME280;43656;57.746;11.780;2023-02-02T04:28:25;100822.19;;;1.49;81.26
57827;BME280;43656;57.746;11.780;2023-02-02T04:30:52;100823.84;;;1.40;81.17
57827;BME280;43656;57.746;11.780;2023-02-02T04:33:19;100825.66;;;1.30;81.73
57827;BME280;43656;57.746;11.780;2023-02-02T04:35:45;100806.94;;;0.93;82.79
57827;BME280;43656;57.746;11.780;2023-02-02T04:38:11;100847.16;;;1.37;81.72
57827;BME280;43656;57.746;11.780;2023-02-02T04:40:40;100820.63;;;1.37;81.48
57827;BME280;43656;57.746;11.780;2023-02-02T04:43:07;100848.41;;;1.43;81.24
57827;BME280;43656;57.746;11.780;2023-02-02T04:45:33;100863.75;;;1.49;80.81
57827;BME280;43656;57.746;11.780;2023-02-02T04:47:58;100867.25;;;1.39;81.81
57827;BME280;43656;57.746;11.780;2023-02-02T04:50:23;100854.00;;;1.39;81.85
57827;BME280;43656;57.746;11.780;2023-02-02T04:52:49;100864.59;;;1.39;81.34
57827;BME280;43656;57.746;11.780;2023-02-02T04:55:14;100849.09;;;1.45;80.66
57827;BME280;43656;57.746;11.780;2023-02-02T04:57:40;100888.06;;;1.63;80.36
57827;BME280;43656;57.746;11.780;2023-02-02T05:00:06;100892.25;;;1.47;80.75
57827;BME280;43656;57.746;11.780;2023-02-02T05:02:38;100886.50;;;1.41;80.88
57827;BME280;43656;57.746;11.780;2023-02-02T05:05:05;100893.06;;;1.37;81.61
57827;BME280;43656;57.746;11.780;2023-02-02T05:07:31;100900.88;;;1.29;81.65
57827;BME280;43656;57.746;11.780;2023-02-02T05:09:57;100893.00;;;1.08;82.71
57827;BME280;43656;57.746;11.780;2023-02-02T05:12:22;100912.81;;;1.14;83.30
57827;BME280;43656;57.746;11.780;2023-02-02T05:14:48;100917.78;;;0.98;83.12
57827;BME280;43656;57.746;11.780;2023-02-02T05:17:13;100906.00;;;1.21;82.31
57827;BME280;43656;57.746;11.780;2023-02-02T05:19:40;100908.50;;;1.13;82.62
57827;BME280;43656;57.746;11.780;2023-02-02T05:22:05;100891.44;;;0.96;82.17
57827;BME280;43656;57.746;11.780;2023-02-02T05:24:31;100923.53;;;1.03;82.84
57827;BME280;43656;57.746;11.780;2023-02-02T05:26:56;100925.47;;;1.01;82.77
57827;BME280;43656;57.746;11.780;2023-02-02T05:29:29;100934.97;;;0.73;83.78
57827;BME280;43656;57.746;11.780;2023-02-02T05:31:55;100939.31;;;0.74;83.91
57827;BME280;43656;57.746;11.780;2023-02-02T05:34:21;100946.22;;;0.65;84.71
57827;BME280;43656;57.746;11.780;2023-02-02T05:36:47;100948.59;;;0.68;84.23
57827;BME280;43656;57.746;11.780;2023-02-02T05:39:12;100960.19;;;0.67;84.50
57827;BME280;43656;57.746;11.780;2023-02-02T05:41:37;100946.09;;;0.66;83.73
57827;BME280;43656;57.746;11.780;2023-02-02T05:44:03;100972.50;;;0.78;83.81
57827;BME280;43656;57.746;11.780;2023-02-02T05:46:29;100950.16;;;0.50;84.19
57827;BME280;43656;57.746;11.780;2023-02-02T05:48:54;100985.22;;;0.63;84.31
57827;BME280;43656;57.746;11.780;2023-02-02T05:51:24;100984.53;;;0.61;83.98
57827;BME280;43656;57.746;11.780;2023-02-02T05:53:51;100983.38;;;0.54;83.79
57827;BME280;43656;57.746;11.780;2023-02-02T05:56:17;100991.06;;;0.57;83.53
57827;BME280;43656;57.746;11.780;2023-02-02T05:58:42;101001.09;;;0.63;82.85
57827;BME280;43656;57.746;11.780;2023-02-02T06:01:09;101010.25;;;0.70;82.86
57827;BME280;43656;57.746;11.780;2023-02-02T06:03:34;100990.63;;;0.82;81.80
57827;BME280;43656;57.746;11.780;2023-02-02T06:06:00;101019.97;;;0.90;81.94
57827;BME280;43656;57.746;11.780;2023-02-02T06:08:25;101017.06;;;0.73;83.02
57827;BME280;43656;57.746;11.780;2023-02-02T06:10:51;100992.81;;;0.46;84.08
57827;BME280;43656;57.746;11.780;2023-02-02T06:13:16;101029.56;;;0.61;83.94
57827;BME280;43656;57.746;11.780;2023-02-02T06:15:42;101018.81;;;0.62;84.06
57827;BME280;43656;57.746;11.780;2023-02-02T06:18:08;101038.47;;;0.60;84.11
57827;BME280;43656;57.746;11.780;2023-02-02T06:20:34;101038.81;;;0.34;84.89
57827;BME280;43656;57.746;11.780;2023-02-02T06:23:00;101043.94;;;0.47;84.33
57827;BME280;43656;57.746;11.780;2023-02-02T06:25:26;101044.72;;;0.59;84.02
57827;BME280;43656;57.746;11.780;2023-02-02T06:27:56;101051.56;;;0.61;84.05
57827;BME280;43656;57.746;11.780;2023-02-02T06:30:22;101047.81;;;0.64;83.92
57827;BME280;43656;57.746;11.780;2023-02-02T06:32:47;101049.81;;;0.51;83.89
57827;BME280;43656;57.746;11.780;2023-02-02T06:35:12;101050.41;;;0.54;83.89
57827;BME280;43656;57.746;11.780;2023-02-02T06:37:38;101052.06;;;0.55;83.95
57827;BME280;43656;57.746;11.780;2023-02-02T06:40:05;101062.81;;;0.54;83.72
57827;BME280;43656;57.746;11.780;2023-02-02T06:42:31;101058.53;;;0.41;83.66
57827;BME280;43656;57.746;11.780;2023-02-02T06:44:56;101076.03;;;0.54;83.03
57827;BME280;43656;57.746;11.780;2023-02-02T06:47:22;101055.47;;;0.46;82.82
57827;BME280;43656;57.746;11.780;2023-02-02T06:49:47;101063.97;;;0.40;82.61
57827;BME280;43656;57.746;11.780;2023-02-02T06:52:12;101078.56;;;0.55;82.43
57827;BME280;43656;57.746;11.780;2023-02-02T06:54:38;101092.00;;;0.63;82.25
57827;BME280;43656;57.746;11.780;2023-02-02T06:57:03;101102.78;;;0.51;82.63
57827;BME280;43656;57.746;11.780;2023-02-02T06:59:29;101110.91;;;0.59;82.25
57827;BME280;43656;57.746;11.780;2023-02-02T07:01:54;101106.53;;;0.69;81.88
57827;BME280;43656;57.746;11.780;2023-02-02T07:04:19;101100.50;;;0.46;82.62
57827;BME280;43656;57.746;11.780;2023-02-02T07:06:46;101088.69;;;0.50;82.25
57827;BME280;43656;57.746;11.780;2023-02-02T07:09:11;101121.00;;;0.65;81.87
57827;BME280;43656;57.746;11.780;2023-02-02T07:11:37;101129.34;;;0.60;81.57
57827;BME280;43656;57.746;11.780;2023-02-02T07:14:03;101107.69;;;0.55;81.82
57827;BME280;43656;57.746;11.780;2023-02-02T07:16:29;101126.59;;;0.51;81.93
57827;BME280;43656;57.746;11.780;2023-02-02T07:18:54;101123.38;;;0.47;82.17
57827;BME280;43656;57.746;11.780;2023-02-02T07:21:23;101139.63;;;0.42;82.24
57827;BME280;43656;57.746;11.780;2023-02-02T07:23:50;101141.06;;;0.46;82.12
57827;BME280;43656;57.746;11.780;2023-02-02T07:26:17;101152.69;;;0.55;81.62
57827;BME280;43656;57.746;11.780;2023-02-02T07:28:44;101152.25;;;0.39;82.52
57827;BME280;43656;57.746;11.780;2023-02-02T07:31:13;101158.28;;;0.30;82.49
57827;BME280;43656;57.746;11.780;2023-02-02T07:33:43;101161.69;;;0.09;82.65
57827;BME280;43656;57.746;11.780;2023-02-02T07:36:10;101170.47;;;0.21;82.31
57827;BME280;43656;57.746;11.780;2023-02-02T07:38:36;101170.72;;;0.18;82.20
57827;BME280;43656;57.746;11.780;2023-02-02T07:41:02;101174.44;;;0.15;81.84
57827;BME280;43656;57.746;11.780;2023-02-02T07:43:28;101191.66;;;0.21;81.75
57827;BME280;43656;57.746;11.780;2023-02-02T07:45:58;101193.53;;;0.41;81.11
57827;BME280;43656;57.746;11.780;2023-02-02T07:48:26;101191.19;;;0.59;80.10
57827;BME280;43656;57.746;11.780;2023-02-02T07:50:51;101195.78;;;0.57;79.96
57827;BME280;43656;57.746;11.780;2023-02-02T07:53:17;101191.06;;;0.61;79.25
57827;BME280;43656;57.746;11.780;2023-02-02T07:55:42;101202.13;;;0.66;79.22
57827;BME280;43656;57.746;11.780;2023-02-02T07:58:08;101206.44;;;0.78;78.62
57827;BME280;43656;57.746;11.780;2023-02-02T08:00:34;101218.78;;;0.57;79.08
57827;BME280;43656;57.746;11.780;2023-02-02T08:02:59;101228.34;;;0.69;79.03
57827;BME280;43656;57.746;11.780;2023-02-02T08:05:26;101234.06;;;0.53;79.59
57827;BME280;43656;57.746;11.780;2023-02-02T08:07:52;101237.31;;;0.57;79.82
57827;BME280;43656;57.746;11.780;2023-02-02T08:10:17;101250.44;;;0.47;80.28
57827;BME280;43656;57.746;11.780;2023-02-02T08:12:43;101241.66;;;0.35;80.97
57827;BME280;43656;57.746;11.780;2023-02-02T08:15:09;101234.00;;;0.21;80.43
57827;BME280;43656;57.746;11.780;2023-02-02T08:17:34;101253.81;;;0.38;80.54
57827;BME280;43656;57.746;11.780;2023-02-02T08:20:01;101258.75;;;0.54;79.95
57827;BME280;43656;57.746;11.780;2023-02-02T08:22:26;101255.63;;;0.60;79.62
57827;BME280;43656;57.746;11.780;2023-02-02T08:24:52;101264.25;;;0.62;79.38
57827;BME280;43656;57.746;11.780;2023-02-02T08:27:17;101255.63;;;0.60;79.10
57827;BME280;43656;57.746;11.780;2023-02-02T08:29:44;101260.91;;;0.49;79.10
57827;BME280;43656;57.746;11.780;2023-02-02T08:32:10;101258.41;;;0.47;79.15
57827;BME280;43656;57.746;11.780;2023-02-02T08:34:35;101259.84;;;0.40;79.35
57827;BME280;43656;57.746;11.780;2023-02-02T08:37:02;101262.00;;;0.57;79.32
57827;BME280;43656;57.746;11.780;2023-02-02T08:39:28;101261.84;;;0.70;78.83
57827;BME280;43656;57.746;11.780;2023-02-02T08:41:54;101257.97;;;0.74;78.65
57827;BME280;43656;57.746;11.780;2023-02-02T08:44:20;101274.47;;;0.78;78.77
57827;BME280;43656;57.746;11.780;2023-02-02T08:46:46;101275.56;;;0.64;78.53
57827;BME280;43656;57.746;11.780;2023-02-02T08:49:11;101274.06;;;0.82;77.76
57827;BME280;43656;57.746;11.780;2023-02-02T08:51:37;101289.72;;;0.97;77.43
57827;BME280;43656;57.746;11.780;2023-02-02T08:54:03;101261.84;;;0.70;77.26
57827;BME280;43656;57.746;11.780;2023-02-02T08:56:29;101294.75;;;1.00;76.63
57827;BME280;43656;57.746;11.780;2023-02-02T08:58:56;101310.75;;;1.09;76.33
57827;BME280;43656;57.746;11.780;2023-02-02T09:01:27;101314.25;;;0.99;75.75
57827;BME280;43656;57.746;11.780;2023-02-02T09:04:04;101301.66;;;0.91;74.83
57827;BME280;43656;57.746;11.780;2023-02-02T09:06:35;101298.75;;;0.83;74.35
57827;BME280;43656;57.746;11.780;2023-02-02T09:09:02;101329.56;;;1.06;74.46
57827;BME280;43656;57.746;11.780;2023-02-02T09:11:28;101335.91;;;1.15;74.80
57827;BME280;43656;57.746;11.780;2023-02-02T09:13:56;101336.25;;;1.22;74.93
57827;BME280;43656;57.746;11.780;2023-02-02T09:16:23;101328.03;;;1.25;75.21
57827;BME280;43656;57.746;11.780;2023-02-02T09:18:49;101357.03;;;1.37;74.66
57827;BME280;43656;57.746;11.780;2023-02-02T09:21:16;101354.25;;;1.39;74.76
57827;BME280;43656;57.746;11.780;2023-02-02T09:23:43;101374.88;;;1.35;74.24
57827;BME280;43656;57.746;11.780;2023-02-02T09:26:14;101379.00;;;1.39;74.17
57827;BME280;43656;57.746;11.780;2023-02-02T09:28:41;101390.28;;;1.53;74.69
57827;BME280;43656;57.746;11.780;2023-02-02T09:31:07;101405.22;;;1.54;74.54
57827;BME280;43656;57.746;11.780;2023-02-02T09:33:33;101392.69;;;1.56;74.51
57827;BME280;43656;57.746;11.780;2023-02-02T09:36:13;101393.00;;;1.62;74.21
57827;BME280;43656;57.746;11.780;2023-02-02T09:38:39;101405.38;;;1.41;73.50
57827;BME280;43656;57.746;11.780;2023-02-02T09:50:21;101417.00;;;1.61;72.77
57827;BME280;43656;57.746;11.780;2023-02-02T09:55:42;101419.72;;;1.71;72.73
57827;BME280;43656;57.746;11.780;2023-02-02T09:58:19;101436.00;;;1.77;72.69
57827;BME280;43656;57.746;11.780;2023-02-02T10:03:20;101393.66;;;1.44;72.87
57827;BME280;43656;57.746;11.780;2023-02-02T10:05:54;101428.75;;;1.79;73.07
57827;BME280;43656;57.746;11.780;2023-02-02T10:08:33;101431.25;;;1.60;73.50
57827;BME280;43656;57.746;11.780;2023-02-02T10:11:07;101449.75;;;1.71;72.89
57827;BME280;43656;57.746;11.780;2023-02-02T10:13:40;101411.75;;;1.50;73.53
57827;BME280;43656;57.746;11.780;2023-02-02T10:16:15;101441.94;;;1.58;73.74
57827;BME280;43656;57.746;11.780;2023-02-02T10:18:47;101441.84;;;1.60;73.64
57827;BME280;43656;57.746;11.780;2023-02-02T10:23:53;101447.66;;;1.86;72.96
57827;BME280;43656;57.746;11.780;2023-02-02T10:34:41;101456.38;;;2.09;72.98
57827;BME280;43656;57.746;11.780;2023-02-02T10:39:54;101459.88;;;2.09;72.56
57827;BME280;43656;57.746;11.780;2023-02-02T10:45:38;101456.88;;;2.03;72.79
57827;BME280;43656;57.746;11.780;2023-02-02T10:48:13;101489.41;;;2.16;73.04
57827;BME280;43656;57.746;11.780;2023-02-02T10:50:41;101490.97;;;2.19;72.74
57827;BME280;43656;57.746;11.780;2023-02-02T10:53:12;101500.38;;;2.11;72.97
57827;BME280;43656;57.746;11.780;2023-02-02T10:55:42;101500.13;;;2.15;73.12
57827;BME280;43656;57.746;11.780;2023-02-02T11:00:48;101501.59;;;2.40;72.34
57827;BME280;43656;57.746;11.780;2023-02-02T11:03:17;101491.41;;;2.45;72.11
57827;BME280;43656;57.746;11.780;2023-02-02T11:05:43;101485.09;;;2.36;72.32
57827;BME280;43656;57.746;11.780;2023-02-02T11:10:59;101504.97;;;2.63;71.34
57827;BME280;43656;57.746;11.780;2023-02-02T11:13:39;101509.31;;;2.64;71.10
57827;BME280;43656;57.746;11.780;2023-02-02T11:18:41;101508.06;;;2.68;71.10
57827;BME280;43656;57.746;11.780;2023-02-02T11:24:01;101473.47;;;2.58;71.04
57827;BME280;43656;57.746;11.780;2023-02-02T11:26:47;101490.28;;;2.89;70.65
57827;BME280;43656;57.746;11.780;2023-02-02T11:29:17;101491.44;;;2.96;71.17
57827;BME280;43656;57.746;11.780;2023-02-02T11:31:45;101476.84;;;2.91;71.08
57827;BME280;43656;57.746;11.780;2023-02-02T11:34:26;101480.22;;;2.93;71.10
57827;BME280;43656;57.746;11.780;2023-02-02T11:37:04;101484.19;;;2.98;71.02
57827;BME280;43656;57.746;11.780;2023-02-02T11:39:35;101483.94;;;3.01;70.63
57827;BME280;43656;57.746;11.780;2023-02-02T11:42:03;101482.38;;;2.99;71.22
57827;BME280;43656;57.746;11.780;2023-02-02T11:44:31;101500.72;;;3.02;71.15
57827;BME280;43656;57.746;11.780;2023-02-02T11:46:59;101484.44;;;2.95;70.87
57827;BME280;43656;57.746;11.780;2023-02-02T11:49:25;101507.56;;;3.04;70.53
57827;BME280;43656;57.746;11.780;2023-02-02T11:52:03;101512.03;;;3.04;70.57
57827;BME280;43656;57.746;11.780;2023-02-02T11:54:31;101515.09;;;2.99;70.52
57827;BME280;43656;57.746;11.780;2023-02-02T11:57:03;101513.88;;;3.03;70.77
57827;BME280;43656;57.746;11.780;2023-02-02T12:04:38;101522.28;;;3.09;70.24
57827;BME280;43656;57.746;11.780;2023-02-02T12:07:32;101494.78;;;2.89;70.54
57827;BME280;43656;57.746;11.780;2023-02-02T12:10:28;101504.72;;;2.96;70.33
57827;BME280;43656;57.746;11.780;2023-02-02T12:13:08;101499.38;;;3.17;69.77
57827;BME280;43656;57.746;11.780;2023-02-02T12:26:49;101505.03;;;3.34;68.61
57827;BME280;43656;57.746;11.780;2023-02-02T12:43:47;101519.47;;;3.41;66.18
57827;BME280;43656;57.746;11.780;2023-02-02T12:49:15;101527.19;;;3.44;65.85
57827;BME280;43656;57.746;11.780;2023-02-02T13:12:43;101544.84;;;3.45;63.31
57827;BME280;43656;57.746;11.780;2023-02-02T13:15:16;101541.31;;;3.35;63.02
57827;BME280;43656;57.746;11.780;2023-02-02T13:23:18;101564.72;;;3.50;63.42
57827;BME280;43656;57.746;11.780;2023-02-02T13:25:52;101571.75;;;3.51;62.97
57827;BME280;43656;57.746;11.780;2023-02-02T13:28:37;101572.03;;;3.48;63.40
57827;BME280;43656;57.746;11.780;2023-02-02T13:31:10;101567.28;;;3.52;63.99
57827;BME280;43656;57.746;11.780;2023-02-02T13:33:40;101545.94;;;3.42;64.00
57827;BME280;43656;57.746;11.780;2023-02-02T13:36:14;101572.94;;;3.68;64.27
57827;BME280;43656;57.746;11.780;2023-02-02T13:38:42;101575.03;;;3.65;63.85
57827;BME280;43656;57.746;11.780;2023-02-02T13:41:10;101576.84;;;3.74;64.35
57827;BME280;43656;57.746;11.780;2023-02-02T13:49:06;101582.47;;;3.81;64.66
57827;BME280;43656;57.746;11.780;2023-02-02T13:59:51;101605.50;;;3.91;64.97
57827;BME280;43656;57.746;11.780;2023-02-02T14:02:50;101607.44;;;3.89;65.21
57827;BME280;43656;57.746;11.780;2023-02-02T14:05:26;101599.59;;;3.78;65.92
57827;BME280;43656;57.746;11.780;2023-02-02T14:10:34;101606.84;;;3.76;65.88
57827;BME280;43656;57.746;11.780;2023-02-02T14:16:03;101611.34;;;3.75;66.04
57827;BME280;43656;57.746;11.780;2023-02-02T14:45:47;101623.25;;;3.71;66.43
57827;BME280;43656;57.746;11.780;2023-02-02T14:48:19;101651.44;;;3.84;66.07
57827;BME280;43656;57.746;11.780;2023-02-02T14:50:49;101656.75;;;3.84;66.70
57827;BME280;43656;57.746;11.780;2023-02-02T14:56:05;101659.28;;;3.85;66.16
57827;BME280;43656;57.746;11.780;2023-02-02T14:58:40;101666.97;;;3.79;66.07
57827;BME280;43656;57.746;11.780;2023-02-02T15:01:28;101659.50;;;3.72;66.55
57827;BME280;43656;57.746;11.780;2023-02-02T15:09:54;101668.13;;;3.55;66.18
57827;BME280;43656;57.746;11.780;2023-02-02T15:14:24;101659.06;;;3.37;66.58
57827;BME280;43656;57.746;11.780;2023-02-02T15:16:51;101681.75;;;3.41;66.96
57827;BME280;43656;57.746;11.780;2023-02-02T15:19:28;101688.31;;;3.37;66.76
57827;BME280;43656;57.746;11.780;2023-02-02T15:21:58;101695.13;;;3.29;66.89
57827;BME280;43656;57.746;11.780;2023-02-02T15:24:26;101696.47;;;3.24;67.28
57827;BME280;43656;57.746;11.780;2023-02-02T15:26:54;101703.88;;;3.20;67.66
57827;BME280;43656;57.746;11.780;2023-02-02T15:29:39;101707.91;;;3.15;67.31
57827;BME280;43656;57.746;11.780;2023-02-02T15:32:13;101705.63;;;3.10;67.12
57827;BME280;43656;57.746;11.780;2023-02-02T15:34:47;101681.44;;;2.92;67.94
57827;BME280;43656;57.746;11.780;2023-02-02T15:37:18;101699.66;;;2.97;67.35
57827;BME280;43656;57.746;11.780;2023-02-02T15:39:53;101693.75;;;2.93;67.61
57827;BME280;43656;57.746;11.780;2023-02-02T15:42:24;101693.16;;;2.90;67.97
57827;BME280;43656;57.746;11.780;2023-02-02T15:47:57;101693.22;;;2.78;68.08
57827;BME280;43656;57.746;11.780;2023-02-02T15:50:24;101678.13;;;2.68;68.11
57827;BME280;43656;57.746;11.780;2023-02-02T15:52:51;101696.47;;;2.71;68.54
57827;BME280;43656;57.746;11.780;2023-02-02T15:55:32;101701.09;;;2.69;69.04
57827;BME280;43656;57.746;11.780;2023-02-02T15:57:58;101697.97;;;2.64;68.62
57827;BME280;43656;57.746;11.780;2023-02-02T16:03:09;101706.81;;;2.53;68.83
57827;BME280;43656;57.746;11.780;2023-02-02T16:05:38;101713.34;;;2.49;68.87
57827;BME280;43656;57.746;11.780;2023-02-02T16:08:13;101710.34;;;2.42;69.05
57827;BME280;43656;57.746;11.780;2023-02-02T16:10:40;101709.00;;;2.37;69.09
57827;BME280;43656;57.746;11.780;2023-02-02T16:13:05;101703.94;;;2.33;69.45
57827;BME280;43656;57.746;11.780;2023-02-02T16:15:31;101697.19;;;2.29;69.39